sensor_id;sensor_type;location;lat;lon;timestamp;pressure;altitude;pressure_sealevel;temperature;humidity
54194;BME280;40102;50.906;6.972;2023-07-30T00:01:37;100379.69;;;19.53;86.53
54194;BME280;40102;50.906;6.972;2023-07-30T00:04:03;100381.22;;;19.55;86.03
54194;BME280;40102;50.906;6.972;2023-07-30T00:06:28;100392.09;;;19.55;85.68
54194;BME280;40102;50.906;6.972;2023-07-30T00:08:54;100384.38;;;19.51;85.61
54194;BME280;40102;50.906;6.972;2023-07-30T00:11:19;100379.53;;;19.45;85.71
54194;BME280;40102;50.906;6.972;2023-07-30T00:13:44;100394.97;;;19.44;86.00
54194;BME280;40102;50.906;6.972;2023-07-30T00:16:10;100385.56;;;19.38;86.15
54194;BME280;40102;50.906;6.972;2023-07-30T00:18:35;100390.44;;;19.35;86.16
54194;BME280;40102;50.906;6.972;2023-07-30T00:21:01;100394.44;;;19.31;86.53
54194;BME280;40102;50.906;6.972;2023-07-30T00:23:26;100392.75;;;19.30;86.39
54194;BME280;40102;50.906;6.972;2023-07-30T00:25:52;100393.59;;;19.30;86.73
54194;BME280;40102;50.906;6.972;2023-07-30T00:28:17;100390.03;;;19.30;86.39
54194;BME280;40102;50.906;6.972;2023-07-30T00:30:43;100388.72;;;19.34;86.06
54194;BME280;40102;50.906;6.972;2023-07-30T00:33:08;100382.44;;;19.33;85.85
54194;BME280;40102;50.906;6.972;2023-07-30T00:35:34;100382.31;;;19.35;85.99
54194;BME280;40102;50.906;6.972;2023-07-30T00:37:59;100388.72;;;19.34;85.26
54194;BME280;40102;50.906;6.972;2023-07-30T00:40:24;100389.03;;;19.31;84.91
54194;BME280;40102;50.906;6.972;2023-07-30T00:42:50;100400.47;;;19.25;84.71
54194;BME280;40102;50.906;6.972;2023-07-30T00:45:15;100394.78;;;19.18;85.71
54194;BME280;40102;50.906;6.972;2023-07-30T00:47:41;100391.22;;;19.18;86.34
54194;BME280;40102;50.906;6.972;2023-07-30T00:50:07;100391.38;;;19.16;86.22
54194;BME280;40102;50.906;6.972;2023-07-30T00:52:33;100394.50;;;19.21;86.14
54194;BME280;40102;50.906;6.972;2023-07-30T00:55:01;100394.34;;;19.23;85.69
54194;BME280;40102;50.906;6.972;2023-07-30T00:57:27;100391.47;;;19.24;85.43
54194;BME280;40102;50.906;6.972;2023-07-30T00:59:54;100395.03;;;19.25;85.20
54194;BME280;40102;50.906;6.972;2023-07-30T01:02:23;100393.03;;;19.27;85.10
54194;BME280;40102;50.906;6.972;2023-07-30T01:04:49;100388.91;;;19.23;84.74
54194;BME280;40102;50.906;6.972;2023-07-30T01:07:15;100392.19;;;19.26;84.60
54194;BME280;40102;50.906;6.972;2023-07-30T01:09:40;100403.88;;;19.27;84.79
54194;BME280;40102;50.906;6.972;2023-07-30T01:12:06;100419.31;;;19.26;84.59
54194;BME280;40102;50.906;6.972;2023-07-30T01:14:32;100407.91;;;19.23;84.50
54194;BME280;40102;50.906;6.972;2023-07-30T01:16:58;100416.03;;;19.23;84.25
54194;BME280;40102;50.906;6.972;2023-07-30T01:19:23;100412.91;;;19.18;84.27
54194;BME280;40102;50.906;6.972;2023-07-30T01:21:48;100414.63;;;19.19;84.39
54194;BME280;40102;50.906;6.972;2023-07-30T01:24:14;100421.59;;;19.21;84.69
54194;BME280;40102;50.906;6.972;2023-07-30T01:26:56;100414.63;;;19.19;84.34
54194;BME280;40102;50.906;6.972;2023-07-30T01:32:11;100417.19;;;19.20;84.31
54194;BME280;40102;50.906;6.972;2023-07-30T01:34:37;100422.47;;;19.22;84.04
54194;BME280;40102;50.906;6.972;2023-07-30T01:37:05;100418.91;;;19.21;84.06
54194;BME280;40102;50.906;6.972;2023-07-30T01:39:34;100422.47;;;19.22;83.90
54194;BME280;40102;50.906;6.972;2023-07-30T01:42:01;100419.91;;;19.20;84.15
54194;BME280;40102;50.906;6.972;2023-07-30T01:44:27;100433.00;;;19.25;83.94
54194;BME280;40102;50.906;6.972;2023-07-30T01:46:52;100430.03;;;19.18;83.71
54194;BME280;40102;50.906;6.972;2023-07-30T01:49:18;100435.91;;;19.14;83.58
54194;BME280;40102;50.906;6.972;2023-07-30T01:51:43;100422.78;;;19.09;83.84
54194;BME280;40102;50.906;6.972;2023-07-30T01:54:08;100420.22;;;19.07;83.88
54194;BME280;40102;50.906;6.972;2023-07-30T01:56:33;100429.22;;;19.08;83.39
54194;BME280;40102;50.906;6.972;2023-07-30T01:58:59;100431.34;;;19.04;83.11
54194;BME280;40102;50.906;6.972;2023-07-30T02:01:24;100438.78;;;19.02;82.69
54194;BME280;40102;50.906;6.972;2023-07-30T02:03:52;100426.53;;;18.98;82.44
54194;BME280;40102;50.906;6.972;2023-07-30T02:06:18;100431.22;;;18.96;80.95
54194;BME280;40102;50.906;6.972;2023-07-30T02:08:43;100425.09;;;18.94;80.95
54194;BME280;40102;50.906;6.972;2023-07-30T02:11:08;100424.09;;;18.95;80.25
54194;BME280;40102;50.906;6.972;2023-07-30T02:13:34;100424.41;;;18.92;79.65
54194;BME280;40102;50.906;6.972;2023-07-30T02:15:59;100421.69;;;18.92;79.47
54194;BME280;40102;50.906;6.972;2023-07-30T02:18:25;100416.25;;;18.92;79.22
54194;BME280;40102;50.906;6.972;2023-07-30T02:20:50;100412.56;;;18.93;78.84
54194;BME280;40102;50.906;6.972;2023-07-30T02:23:16;100404.69;;;19.00;78.87
54194;BME280;40102;50.906;6.972;2023-07-30T02:25:41;100412.22;;;19.06;78.86
54194;BME280;40102;50.906;6.972;2023-07-30T02:28:07;100419.22;;;19.08;78.72
54194;BME280;40102;50.906;6.972;2023-07-30T02:30:33;100414.78;;;19.07;78.04
54194;BME280;40102;50.906;6.972;2023-07-30T02:32:59;100421.94;;;19.08;77.56
54194;BME280;40102;50.906;6.972;2023-07-30T02:35:24;100417.34;;;19.09;77.46
54194;BME280;40102;50.906;6.972;2023-07-30T02:37:49;100428.19;;;19.09;77.67
54194;BME280;40102;50.906;6.972;2023-07-30T02:40:15;100419.22;;;19.08;77.09
54194;BME280;40102;50.906;6.972;2023-07-30T02:42:40;100415.09;;;19.04;76.86
54194;BME280;40102;50.906;6.972;2023-07-30T02:45:06;100425.63;;;19.07;76.75
54194;BME280;40102;50.906;6.972;2023-07-30T02:47:31;100416.81;;;19.05;76.53
54194;BME280;40102;50.906;6.972;2023-07-30T02:49:57;100422.78;;;19.09;76.88
54194;BME280;40102;50.906;6.972;2023-07-30T02:52:22;100426.50;;;19.08;76.32
54194;BME280;40102;50.906;6.972;2023-07-30T02:54:47;100418.50;;;19.06;76.67
54194;BME280;40102;50.906;6.972;2023-07-30T02:57:13;100418.34;;;19.08;77.08
54194;BME280;40102;50.906;6.972;2023-07-30T02:59:38;100419.94;;;19.11;77.06
54194;BME280;40102;50.906;6.972;2023-07-30T03:02:05;100423.50;;;19.11;76.93
54194;BME280;40102;50.906;6.972;2023-07-30T03:04:31;100437.59;;;19.15;76.72
54194;BME280;40102;50.906;6.972;2023-07-30T03:06:56;100433.34;;;19.12;76.56
54194;BME280;40102;50.906;6.972;2023-07-30T03:09:22;100440.91;;;19.08;76.07
54194;BME280;40102;50.906;6.972;2023-07-30T03:11:48;100438.50;;;19.05;75.46
54194;BME280;40102;50.906;6.972;2023-07-30T03:14:14;100444.19;;;19.02;75.25
54194;BME280;40102;50.906;6.972;2023-07-30T03:16:40;100453.63;;;18.98;75.07
54194;BME280;40102;50.906;6.972;2023-07-30T03:19:05;100456.91;;;18.92;74.03
54194;BME280;40102;50.906;6.972;2023-07-30T03:21:30;100461.63;;;18.90;75.21
54194;BME280;40102;50.906;6.972;2023-07-30T03:23:56;100463.19;;;18.93;75.39
54194;BME280;40102;50.906;6.972;2023-07-30T03:26:21;100460.03;;;18.97;75.67
54194;BME280;40102;50.906;6.972;2023-07-30T03:28:46;100451.63;;;19.00;75.19
54194;BME280;40102;50.906;6.972;2023-07-30T03:31:12;100463.88;;;19.04;75.32
54194;BME280;40102;50.906;6.972;2023-07-30T03:33:37;100459.31;;;19.05;74.83
54194;BME280;40102;50.906;6.972;2023-07-30T03:36:04;100454.59;;;19.07;74.44
54194;BME280;40102;50.906;6.972;2023-07-30T03:38:30;100460.75;;;18.99;76.66
54194;BME280;40102;50.906;6.972;2023-07-30T03:40:55;100460.78;;;18.80;78.47
54194;BME280;40102;50.906;6.972;2023-07-30T03:43:21;100455.94;;;18.64;80.05
54194;BME280;40102;50.906;6.972;2023-07-30T03:45:46;100474.88;;;18.55;81.23
54194;BME280;40102;50.906;6.972;2023-07-30T03:48:13;100477.72;;;18.53;81.94
54194;BME280;40102;50.906;6.972;2023-07-30T03:50:39;100472.03;;;18.56;81.77
54194;BME280;40102;50.906;6.972;2023-07-30T03:53:04;100472.59;;;18.60;82.09
54194;BME280;40102;50.906;6.972;2023-07-30T03:55:29;100478.44;;;18.55;81.88
54194;BME280;40102;50.906;6.972;2023-07-30T03:57:55;100474.00;;;18.44;82.48
54194;BME280;40102;50.906;6.972;2023-07-30T04:00:20;100479.41;;;18.35;83.67
54194;BME280;40102;50.906;6.972;2023-07-30T04:02:46;100479.84;;;18.30;83.93
54194;BME280;40102;50.906;6.972;2023-07-30T04:05:11;100484.69;;;18.36;83.95
54194;BME280;40102;50.906;6.972;2023-07-30T04:07:36;100485.84;;;18.43;83.84
54194;BME280;40102;50.906;6.972;2023-07-30T04:10:02;100492.53;;;18.49;83.43
54194;BME280;40102;50.906;6.972;2023-07-30T04:12:27;100490.44;;;18.62;83.03
54194;BME280;40102;50.906;6.972;2023-07-30T04:14:52;100488.72;;;18.71;82.52
54194;BME280;40102;50.906;6.972;2023-07-30T04:17:18;100485.44;;;18.77;81.77
54194;BME280;40102;50.906;6.972;2023-07-30T04:19:43;100486.44;;;18.86;81.35
54194;BME280;40102;50.906;6.972;2023-07-30T04:22:08;100483.88;;;18.94;81.04
54194;BME280;40102;50.906;6.972;2023-07-30T04:24:34;100479.31;;;18.94;80.49
54194;BME280;40102;50.906;6.972;2023-07-30T04:27:00;100481.56;;;18.99;80.19
54194;BME280;40102;50.906;6.972;2023-07-30T04:29:26;100472.75;;;18.97;80.17
54194;BME280;40102;50.906;6.972;2023-07-30T04:31:51;100483.16;;;19.01;79.82
54194;BME280;40102;50.906;6.972;2023-07-30T04:34:16;100480.00;;;18.96;79.59
54194;BME280;40102;50.906;6.972;2023-07-30T04:36:42;100484.59;;;18.86;77.81
54194;BME280;40102;50.906;6.972;2023-07-30T04:39:07;100497.56;;;18.83;77.98
54194;BME280;40102;50.906;6.972;2023-07-30T04:41:32;100493.28;;;18.80;77.83
54194;BME280;40102;50.906;6.972;2023-07-30T04:43:58;100492.44;;;18.80;77.70
54194;BME280;40102;50.906;6.972;2023-07-30T04:46:23;100496.00;;;18.80;78.10
54194;BME280;40102;50.906;6.972;2023-07-30T04:48:50;100494.00;;;18.82;77.88
54194;BME280;40102;50.906;6.972;2023-07-30T04:51:16;100498.00;;;18.78;75.98
54194;BME280;40102;50.906;6.972;2023-07-30T04:53:41;100491.31;;;18.72;76.52
54194;BME280;40102;50.906;6.972;2023-07-30T04:56:06;100486.88;;;18.71;76.17
54194;BME280;40102;50.906;6.972;2023-07-30T04:58:32;100485.47;;;18.67;75.05
54194;BME280;40102;50.906;6.972;2023-07-30T05:00:57;100493.72;;;18.66;73.64
54194;BME280;40102;50.906;6.972;2023-07-30T05:03:22;100495.53;;;18.56;72.16
54194;BME280;40102;50.906;6.972;2023-07-30T05:05:48;100492.97;;;18.54;72.44
54194;BME280;40102;50.906;6.972;2023-07-30T05:08:13;100501.25;;;18.53;72.18
54194;BME280;40102;50.906;6.972;2023-07-30T05:10:39;100502.09;;;18.53;71.34
54194;BME280;40102;50.906;6.972;2023-07-30T05:13:07;100490.84;;;18.48;71.19
54194;BME280;40102;50.906;6.972;2023-07-30T05:15:34;100486.13;;;18.50;71.57
54194;BME280;40102;50.906;6.972;2023-07-30T05:17:59;100491.41;;;18.52;70.59
54194;BME280;40102;50.906;6.972;2023-07-30T05:20:24;100484.56;;;18.48;70.05
54194;BME280;40102;50.906;6.972;2023-07-30T05:22:50;100493.81;;;18.45;69.07
54194;BME280;40102;50.906;6.972;2023-07-30T05:25:15;100489.84;;;18.39;70.43
54194;BME280;40102;50.906;6.972;2023-07-30T05:27:40;100491.25;;;18.34;70.88
54194;BME280;40102;50.906;6.972;2023-07-30T05:30:06;100491.09;;;18.35;70.90
54194;BME280;40102;50.906;6.972;2023-07-30T05:32:32;100479.84;;;18.30;69.70
54194;BME280;40102;50.906;6.972;2023-07-30T05:34:57;100482.41;;;18.32;68.29
54194;BME280;40102;50.906;6.972;2023-07-30T05:37:23;100485.81;;;18.24;68.44
54194;BME280;40102;50.906;6.972;2023-07-30T05:39:48;100487.78;;;18.12;69.48
54194;BME280;40102;50.906;6.972;2023-07-30T05:42:13;100480.66;;;18.11;70.46
54194;BME280;40102;50.906;6.972;2023-07-30T05:44:39;100491.34;;;18.13;70.54
54194;BME280;40102;50.906;6.972;2023-07-30T05:47:04;100499.91;;;18.18;70.76
54194;BME280;40102;50.906;6.972;2023-07-30T05:49:30;100505.91;;;18.22;70.65
54194;BME280;40102;50.906;6.972;2023-07-30T05:51:55;100509.59;;;18.21;69.70
54194;BME280;40102;50.906;6.972;2023-07-30T05:54:20;100488.94;;;18.10;70.08
54194;BME280;40102;50.906;6.972;2023-07-30T05:56:46;100493.34;;;18.11;70.28
54194;BME280;40102;50.906;6.972;2023-07-30T05:59:11;100499.19;;;18.06;70.60
54194;BME280;40102;50.906;6.972;2023-07-30T06:01:37;100504.00;;;18.03;70.38
54194;BME280;40102;50.906;6.972;2023-07-30T06:04:02;100499.16;;;17.97;70.18
54194;BME280;40102;50.906;6.972;2023-07-30T06:06:28;100503.84;;;17.95;71.35
54194;BME280;40102;50.906;6.972;2023-07-30T06:08:54;100499.88;;;17.99;70.97
54194;BME280;40102;50.906;6.972;2023-07-30T06:11:20;100496.59;;;17.95;71.43
54194;BME280;40102;50.906;6.972;2023-07-30T06:13:46;100500.88;;;17.98;71.81
54194;BME280;40102;50.906;6.972;2023-07-30T06:16:13;100497.75;;;18.02;71.46
54194;BME280;40102;50.906;6.972;2023-07-30T06:18:38;100498.88;;;18.00;71.50
54194;BME280;40102;50.906;6.972;2023-07-30T06:21:04;100503.44;;;17.99;71.92
54194;BME280;40102;50.906;6.972;2023-07-30T06:23:29;100501.31;;;18.03;71.67
54194;BME280;40102;50.906;6.972;2023-07-30T06:25:55;100499.44;;;18.03;71.65
54194;BME280;40102;50.906;6.972;2023-07-30T06:28:20;100502.28;;;18.02;72.29
54194;BME280;40102;50.906;6.972;2023-07-30T06:30:45;100503.72;;;18.06;71.88
54194;BME280;40102;50.906;6.972;2023-07-30T06:33:11;100509.69;;;18.00;70.63
54194;BME280;40102;50.906;6.972;2023-07-30T06:35:36;100508.25;;;17.96;71.35
54194;BME280;40102;50.906;6.972;2023-07-30T06:38:02;100518.81;;;17.99;71.65
54194;BME280;40102;50.906;6.972;2023-07-30T06:40:27;100537.03;;;17.97;72.19
54194;BME280;40102;50.906;6.972;2023-07-30T06:42:53;100542.44;;;17.97;72.78
54194;BME280;40102;50.906;6.972;2023-07-30T06:45:18;100541.19;;;18.01;70.53
54194;BME280;40102;50.906;6.972;2023-07-30T06:47:44;100546.56;;;17.91;71.28
54194;BME280;40102;50.906;6.972;2023-07-30T06:50:09;100550.94;;;17.83;71.44
54194;BME280;40102;50.906;6.972;2023-07-30T06:52:35;100555.91;;;17.77;70.73
54194;BME280;40102;50.906;6.972;2023-07-30T06:55:01;100567.25;;;17.71;71.67
54194;BME280;40102;50.906;6.972;2023-07-30T06:57:30;100566.78;;;17.66;71.07
54194;BME280;40102;50.906;6.972;2023-07-30T06:59:56;100566.41;;;17.71;71.15
54194;BME280;40102;50.906;6.972;2023-07-30T07:02:23;100561.97;;;17.70;71.46
54194;BME280;40102;50.906;6.972;2023-07-30T07:04:48;100569.69;;;17.74;71.93
54194;BME280;40102;50.906;6.972;2023-07-30T07:07:14;100570.13;;;17.79;71.35
54194;BME280;40102;50.906;6.972;2023-07-30T07:09:39;100559.19;;;17.81;70.87
54194;BME280;40102;50.906;6.972;2023-07-30T07:12:05;100568.59;;;17.87;70.94
54194;BME280;40102;50.906;6.972;2023-07-30T07:14:31;100561.94;;;17.91;70.77
54194;BME280;40102;50.906;6.972;2023-07-30T07:16:56;100560.66;;;17.95;70.43
54194;BME280;40102;50.906;6.972;2023-07-30T07:19:22;100566.94;;;17.95;69.21
54194;BME280;40102;50.906;6.972;2023-07-30T07:21:48;100565.09;;;17.96;69.71
54194;BME280;40102;50.906;6.972;2023-07-30T07:24:13;100568.06;;;17.93;70.13
54194;BME280;40102;50.906;6.972;2023-07-30T07:26:39;100561.34;;;17.87;69.80
54194;BME280;40102;50.906;6.972;2023-07-30T07:29:04;100555.81;;;17.89;68.96
54194;BME280;40102;50.906;6.972;2023-07-30T07:31:29;100553.50;;;17.84;69.14
54194;BME280;40102;50.906;6.972;2023-07-30T07:33:55;100573.84;;;17.78;70.07
54194;BME280;40102;50.906;6.972;2023-07-30T07:36:20;100570.28;;;17.78;70.15
54194;BME280;40102;50.906;6.972;2023-07-30T07:38:46;100575.69;;;17.78;70.01
54194;BME280;40102;50.906;6.972;2023-07-30T07:41:17;100573.69;;;17.80;70.04
54194;BME280;40102;50.906;6.972;2023-07-30T07:43:44;100584.84;;;17.87;70.79
54194;BME280;40102;50.906;6.972;2023-07-30T07:46:09;100582.72;;;17.90;70.99
54194;BME280;40102;50.906;6.972;2023-07-30T07:48:42;100583.31;;;17.94;70.03
54194;BME280;40102;50.906;6.972;2023-07-30T07:51:11;100583.63;;;18.00;69.74
54194;BME280;40102;50.906;6.972;2023-07-30T07:53:37;100587.72;;;17.95;70.78
54194;BME280;40102;50.906;6.972;2023-07-30T07:56:03;100579.03;;;17.91;70.55
54194;BME280;40102;50.906;6.972;2023-07-30T07:58:28;100586.28;;;17.91;70.82
54194;BME280;40102;50.906;6.972;2023-07-30T08:00:55;100587.13;;;17.91;71.42
54194;BME280;40102;50.906;6.972;2023-07-30T08:03:21;100578.47;;;17.97;70.78
54194;BME280;40102;50.906;6.972;2023-07-30T08:05:46;100583.16;;;17.95;70.83
54194;BME280;40102;50.906;6.972;2023-07-30T08:08:11;100583.75;;;17.99;71.25
54194;BME280;40102;50.906;6.972;2023-07-30T08:10:40;100572.94;;;17.99;69.98
54194;BME280;40102;50.906;6.972;2023-07-30T08:13:11;100575.50;;;18.00;70.49
54194;BME280;40102;50.906;6.972;2023-07-30T08:15:37;100583.75;;;17.99;70.39
54194;BME280;40102;50.906;6.972;2023-07-30T08:18:02;100583.47;;;18.02;70.50
54194;BME280;40102;50.906;6.972;2023-07-30T08:20:28;100575.50;;;18.00;71.02
54194;BME280;40102;50.906;6.972;2023-07-30T08:22:53;100586.78;;;18.05;70.60
54194;BME280;40102;50.906;6.972;2023-07-30T08:25:18;100577.06;;;18.03;70.80
54194;BME280;40102;50.906;6.972;2023-07-30T08:27:44;100584.94;;;18.06;70.97
54194;BME280;40102;50.906;6.972;2023-07-30T08:30:10;100582.94;;;18.08;70.75
54194;BME280;40102;50.906;6.972;2023-07-30T08:32:35;100602.91;;;18.17;70.88
54194;BME280;40102;50.906;6.972;2023-07-30T08:35:01;100596.91;;;18.13;71.25
54194;BME280;40102;50.906;6.972;2023-07-30T08:37:26;100601.59;;;18.11;71.37
54194;BME280;40102;50.906;6.972;2023-07-30T08:39:52;100599.91;;;18.10;70.98
54194;BME280;40102;50.906;6.972;2023-07-30T08:42:17;100580.50;;;18.05;72.00
54194;BME280;40102;50.906;6.972;2023-07-30T08:44:43;100592.19;;;18.05;71.86
54194;BME280;40102;50.906;6.972;2023-07-30T08:47:10;100593.03;;;18.06;72.22
54194;BME280;40102;50.906;6.972;2023-07-30T08:49:35;100587.94;;;18.12;71.61
54194;BME280;40102;50.906;6.972;2023-07-30T08:52:02;100586.38;;;18.10;71.93
54194;BME280;40102;50.906;6.972;2023-07-30T08:54:30;100589.66;;;18.13;72.81
54194;BME280;40102;50.906;6.972;2023-07-30T08:56:57;100586.09;;;18.13;72.73
54194;BME280;40102;50.906;6.972;2023-07-30T08:59:24;100588.53;;;18.16;72.92
54194;BME280;40102;50.906;6.972;2023-07-30T09:01:53;100592.13;;;18.26;72.05
54194;BME280;40102;50.906;6.972;2023-07-30T09:04:20;100596.41;;;18.29;71.79
54194;BME280;40102;50.906;6.972;2023-07-30T09:06:49;100607.13;;;18.40;71.28
54194;BME280;40102;50.906;6.972;2023-07-30T09:09:15;100602.13;;;18.35;71.33
54194;BME280;40102;50.906;6.972;2023-07-30T09:11:41;100599.28;;;18.37;69.11
54194;BME280;40102;50.906;6.972;2023-07-30T09:14:06;100610.97;;;18.37;70.07
54194;BME280;40102;50.906;6.972;2023-07-30T09:16:33;100612.41;;;18.41;69.73
54194;BME280;40102;50.906;6.972;2023-07-30T09:18:58;100612.25;;;18.43;70.09
54194;BME280;40102;50.906;6.972;2023-07-30T09:21:33;100611.44;;;18.52;69.44
54194;BME280;40102;50.906;6.972;2023-07-30T09:24:02;100608.31;;;18.57;68.47
54194;BME280;40102;50.906;6.972;2023-07-30T09:26:42;100615.06;;;18.62;68.05
54194;BME280;40102;50.906;6.972;2023-07-30T09:29:09;100618.47;;;18.64;67.91
54194;BME280;40102;50.906;6.972;2023-07-30T09:31:48;100622.19;;;18.63;68.65
54194;BME280;40102;50.906;6.972;2023-07-30T09:34:18;100623.31;;;18.61;67.05
54194;BME280;40102;50.906;6.972;2023-07-30T09:36:48;100618.88;;;18.60;66.92
54194;BME280;40102;50.906;6.972;2023-07-30T09:39:17;100630.97;;;18.56;67.31
54194;BME280;40102;50.906;6.972;2023-07-30T09:41:44;100624.16;;;18.61;66.82
54194;BME280;40102;50.906;6.972;2023-07-30T09:44:09;100631.03;;;18.65;67.53
54194;BME280;40102;50.906;6.972;2023-07-30T09:46:43;100630.59;;;18.70;66.74
54194;BME280;40102;50.906;6.972;2023-07-30T09:49:09;100630.31;;;18.73;66.54
54194;BME280;40102;50.906;6.972;2023-07-30T09:51:37;100626.78;;;18.82;65.97
54194;BME280;40102;50.906;6.972;2023-07-30T09:54:03;100632.91;;;18.84;66.02
54194;BME280;40102;50.906;6.972;2023-07-30T09:56:29;100640.47;;;18.90;65.22
54194;BME280;40102;50.906;6.972;2023-07-30T09:58:54;100620.22;;;18.94;64.83
54194;BME280;40102;50.906;6.972;2023-07-30T10:01:22;100619.66;;;19.00;64.68
54194;BME280;40102;50.906;6.972;2023-07-30T10:03:49;100620.38;;;19.02;65.33
54194;BME280;40102;50.906;6.972;2023-07-30T10:06:15;100633.66;;;19.05;62.78
54194;BME280;40102;50.906;6.972;2023-07-30T10:08:42;100644.34;;;19.07;60.95
54194;BME280;40102;50.906;6.972;2023-07-30T10:11:09;100632.50;;;19.08;61.01
54194;BME280;40102;50.906;6.972;2023-07-30T10:13:36;100631.38;;;19.11;61.62
54194;BME280;40102;50.906;6.972;2023-07-30T10:16:12;100636.06;;;19.08;62.72
54194;BME280;40102;50.906;6.972;2023-07-30T10:18:41;100645.06;;;19.09;62.52
54194;BME280;40102;50.906;6.972;2023-07-30T10:21:08;100641.50;;;19.08;62.17
54194;BME280;40102;50.906;6.972;2023-07-30T10:23:34;100638.50;;;19.02;63.55
54194;BME280;40102;50.906;6.972;2023-07-30T10:26:09;100645.91;;;19.09;62.06
54194;BME280;40102;50.906;6.972;2023-07-30T10:28:35;100648.19;;;19.04;62.16
54194;BME280;40102;50.906;6.972;2023-07-30T10:31:07;100649.03;;;18.95;63.51
54194;BME280;40102;50.906;6.972;2023-07-30T10:33:53;100646.06;;;18.98;63.21
54194;BME280;40102;50.906;6.972;2023-07-30T10:36:49;100637.19;;;18.96;63.22
54194;BME280;40102;50.906;6.972;2023-07-30T10:39:26;100638.06;;;19.06;63.51
54194;BME280;40102;50.906;6.972;2023-07-30T10:41:56;100638.78;;;19.08;63.70
54194;BME280;40102;50.906;6.972;2023-07-30T10:46:47;100632.78;;;19.15;61.98
54194;BME280;40102;50.906;6.972;2023-07-30T10:49:12;100631.50;;;19.19;61.35
54194;BME280;40102;50.906;6.972;2023-07-30T10:51:38;100632.22;;;19.21;61.14
54194;BME280;40102;50.906;6.972;2023-07-30T10:54:06;100608.81;;;19.10;59.87
54194;BME280;40102;50.906;6.972;2023-07-30T10:56:35;100621.53;;;19.09;60.03
54194;BME280;40102;50.906;6.972;2023-07-30T10:59:03;100626.94;;;19.09;60.88
54194;BME280;40102;50.906;6.972;2023-07-30T11:01:30;100619.53;;;19.12;61.33
54194;BME280;40102;50.906;6.972;2023-07-30T11:03:56;100620.09;;;19.15;60.39
54194;BME280;40102;50.906;6.972;2023-07-30T11:06:25;100640.22;;;19.22;59.45
54194;BME280;40102;50.906;6.972;2023-07-30T11:08:51;100627.38;;;19.24;59.59
54194;BME280;40102;50.906;6.972;2023-07-30T11:11:16;100625.09;;;19.29;59.10
54194;BME280;40102;50.906;6.972;2023-07-30T11:13:46;100615.38;;;19.36;59.47
54194;BME280;40102;50.906;6.972;2023-07-30T11:16:12;100606.94;;;19.39;60.36
54194;BME280;40102;50.906;6.972;2023-07-30T11:18:39;100614.50;;;19.46;58.15
54194;BME280;40102;50.906;6.972;2023-07-30T11:21:10;100625.94;;;19.49;58.04
54194;BME280;40102;50.906;6.972;2023-07-30T11:23:37;100621.94;;;19.53;57.76
54194;BME280;40102;50.906;6.972;2023-07-30T11:26:05;100626.66;;;19.61;57.07
54194;BME280;40102;50.906;6.972;2023-07-30T11:28:36;100614.78;;;19.62;57.36
54194;BME280;40102;50.906;6.972;2023-07-30T11:31:13;100608.94;;;19.66;57.18
54194;BME280;40102;50.906;6.972;2023-07-30T11:33:43;100617.50;;;19.71;57.11
54194;BME280;40102;50.906;6.972;2023-07-30T11:36:12;100623.47;;;19.75;56.34
54194;BME280;40102;50.906;6.972;2023-07-30T11:38:39;100648.75;;;19.76;53.46
54194;BME280;40102;50.906;6.972;2023-07-30T11:41:06;100618.19;;;19.73;55.39
54194;BME280;40102;50.906;6.972;2023-07-30T11:43:40;100625.06;;;19.68;55.03
54194;BME280;40102;50.906;6.972;2023-07-30T11:46:14;100630.06;;;19.72;54.24
54194;BME280;40102;50.906;6.972;2023-07-30T11:48:41;100637.91;;;19.76;53.42
54194;BME280;40102;50.906;6.972;2023-07-30T11:51:06;100653.63;;;19.72;55.15
54194;BME280;40102;50.906;6.972;2023-07-30T11:53:46;100650.03;;;19.81;53.43
54194;BME280;40102;50.906;6.972;2023-07-30T11:56:18;100650.75;;;19.83;55.25
54194;BME280;40102;50.906;6.972;2023-07-30T11:58:45;100636.75;;;19.78;55.16
54194;BME280;40102;50.906;6.972;2023-07-30T12:01:11;100640.91;;;19.72;56.72
54194;BME280;40102;50.906;6.972;2023-07-30T12:03:37;100646.63;;;19.69;57.08
54194;BME280;40102;50.906;6.972;2023-07-30T12:06:05;100645.91;;;19.67;56.69
54194;BME280;40102;50.906;6.972;2023-07-30T12:08:34;100655.63;;;19.70;56.89
54194;BME280;40102;50.906;6.972;2023-07-30T12:11:05;100646.78;;;19.68;56.75
54194;BME280;40102;50.906;6.972;2023-07-30T12:13:31;100663.03;;;19.78;55.76
54194;BME280;40102;50.906;6.972;2023-07-30T12:15:57;100657.75;;;19.76;55.99
54194;BME280;40102;50.906;6.972;2023-07-30T12:18:24;100661.19;;;19.78;56.82
54194;BME280;40102;50.906;6.972;2023-07-30T12:20:52;100664.19;;;19.75;57.90
54194;BME280;40102;50.906;6.972;2023-07-30T12:23:19;100666.75;;;19.77;57.59
54194;BME280;40102;50.906;6.972;2023-07-30T12:25:45;100665.34;;;19.72;57.94
54194;BME280;40102;50.906;6.972;2023-07-30T12:28:11;100666.34;;;19.71;56.99
54194;BME280;40102;50.906;6.972;2023-07-30T12:30:36;100663.31;;;19.75;56.14
54194;BME280;40102;50.906;6.972;2023-07-30T12:33:03;100665.91;;;19.76;56.50
54194;BME280;40102;50.906;6.972;2023-07-30T12:35:29;100668.19;;;19.81;56.65
54194;BME280;40102;50.906;6.972;2023-07-30T12:37:54;100673.59;;;19.81;56.81
54194;BME280;40102;50.906;6.972;2023-07-30T12:40:19;100662.16;;;19.87;57.29
54194;BME280;40102;50.906;6.972;2023-07-30T12:42:45;100665.13;;;20.03;57.11
54194;BME280;40102;50.906;6.972;2023-07-30T12:45:10;100664.38;;;20.11;57.97
54194;BME280;40102;50.906;6.972;2023-07-30T12:47:36;100657.34;;;20.18;57.92
54194;BME280;40102;50.906;6.972;2023-07-30T12:50:02;100656.34;;;20.19;58.95
54194;BME280;40102;50.906;6.972;2023-07-30T12:52:28;100660.88;;;20.28;59.90